createdAt,value
2019-04-05T00:00:04.941Z,10.1
2019-04-05T00:15:14.500Z,10.1
2019-04-05T00:30:04.880Z,10.1
2019-04-05T00:45:04.253Z,10.1
2019-04-05T01:00:04.101Z,10.1
2019-04-05T01:15:04.880Z,10.1
2019-04-05T01:30:04.889Z,10.1
2019-04-05T01:45:04.289Z,10.1
2019-04-05T02:00:04.767Z,10.1
2019-04-05T02:15:05.004Z,10.1
2019-04-05T02:30:04.976Z,10
2019-04-05T02:45:04.425Z,10.1
2019-04-05T03:00:04.553Z,10
2019-04-05T03:15:04.301Z,10
2019-04-05T03:30:04.911Z,10
2019-04-05T03:45:04.837Z,9.9
2019-04-05T04:00:04.654Z,9.9
2019-04-05T04:15:04.464Z,9.9
2019-04-05T04:30:04.315Z,10
2019-04-05T04:45:11.662Z,9.9
2019-04-05T05:00:04.880Z,9.9
2019-04-05T05:15:04.206Z,10
2019-04-05T05:30:04.740Z,10
2019-04-05T05:45:04.251Z,10
2019-04-05T06:00:04.592Z,10
2019-04-05T06:15:04.885Z,10.1
2019-04-05T06:30:04.849Z,10.1
2019-04-05T06:45:04.095Z,10.1
2019-04-05T07:00:04.429Z,10.2
2019-04-05T07:15:04.501Z,10.3
2019-04-05T07:30:04.973Z,10.4
2019-04-05T07:45:04.260Z,10.5
2019-04-05T08:00:04.648Z,10.4
2019-04-05T08:15:04.938Z,11.1
2019-04-05T08:30:04.994Z,11.7
2019-04-05T08:45:04.314Z,11.3
2019-04-05T09:00:04.595Z,11.5
2019-04-05T09:15:04.215Z,11.8
2019-04-05T09:30:04.315Z,16.2
2019-04-05T09:45:04.527Z,17.5
2019-04-05T10:00:04.393Z,14.5
2019-04-05T10:15:04.763Z,13.3
2019-04-05T10:30:04.217Z,12.8
2019-04-05T10:45:05.021Z,12.7
2019-04-05T11:00:04.395Z,12.3
2019-04-05T11:15:04.215Z,12.6
2019-04-05T11:30:13.034Z,12.4
2019-04-05T11:45:04.384Z,12.8
2019-04-05T12:00:04.817Z,12.7
2019-04-05T12:15:06.124Z,12.9
2019-04-05T12:30:04.515Z,13.1
2019-04-05T12:45:04.752Z,13
2019-04-05T13:00:04.037Z,13
2019-04-05T13:15:11.599Z,13.2
2019-04-05T13:30:04.362Z,13.2
2019-04-05T13:45:04.670Z,13.3
2019-04-05T14:00:05.017Z,13.3
2019-04-05T14:15:04.646Z,13.4
2019-04-05T14:30:04.754Z,13.5
2019-04-05T14:45:04.547Z,13.4
2019-04-05T15:00:04.527Z,13.5
2019-04-05T15:15:04.810Z,13.6
2019-04-05T15:30:04.388Z,13.5
2019-04-05T15:45:04.714Z,13.5
2019-04-05T16:00:05.539Z,13.7
2019-04-05T16:15:04.633Z,13.6
2019-04-05T16:30:04.229Z,13.6
2019-04-05T16:45:04.980Z,13.6
2019-04-05T17:00:04.319Z,13.5
2019-04-05T17:15:04.116Z,13.5
2019-04-05T17:30:04.609Z,13.4
2019-04-05T17:45:04.629Z,13.2
2019-04-05T18:00:04.174Z,13.1
2019-04-05T18:15:04.266Z,13
2019-04-05T18:30:04.944Z,12.9
2019-04-05T18:45:04.827Z,12.8
2019-04-05T19:00:04.623Z,12.6
2019-04-05T19:15:04.222Z,12.5
2019-04-05T20:00:04.208Z,12.2
2019-04-05T20:15:04.451Z,12.1
2019-04-05T20:30:04.510Z,12
2019-04-05T20:45:04.285Z,11.9
2019-04-05T21:00:04.063Z,11.8
2019-04-05T21:15:04.369Z,11.7
2019-04-05T21:30:04.531Z,11.6
2019-04-05T21:45:04.853Z,11.5
2019-04-05T22:00:04.759Z,11.4
2019-04-05T22:15:04.599Z,11.3
2019-04-05T22:30:04.821Z,11.2
2019-04-05T22:45:05.029Z,11.1
2019-04-05T23:00:04.376Z,11
2019-04-05T23:15:04.146Z,10.9
2019-04-05T23:30:04.630Z,10.9
2019-04-05T23:45:04.874Z,10.8
